Time;durP1;ratioP1;P1;durP2;ratioP2;P2;SDS_P1;SDS_P2;PMS_P1;PMS_P2;Temp;Humidity;BMP_temperature;BMP_pressure;BME280_temperature;BME280_humidity;BME280_pressure;Samples;Min_cycle;Max_cycle;Signal;HPM_P1;HPM_P2
2021/01/24 00:03:12;;;;;;;16.60;14.90;;;;;;;6.04;60.89;95644.00;8275041;28;20225;-78
2021/01/24 00:07:15;;;;;;;16.33;14.73;;;;;;;5.56;62.21;95640.13;8288698;28;20236;-77
2021/01/24 00:11:17;;;;;;;15.53;14.03;;;;;;;5.52;62.54;95636.09;8268587;28;20680;-77
2021/01/24 00:15:18;;;;;;;16.30;14.60;;;;;;;5.43;62.27;95638.31;8298207;28;20229;-77
2021/01/24 00:19:20;;;;;;;17.20;15.47;;;;;;;5.06;62.72;95639.69;8305424;28;20567;-77
2021/01/24 00:23:23;;;;;;;16.77;15.10;;;;;;;4.71;64.55;95632.34;8306727;28;20672;-77
2021/01/24 00:27:25;;;;;;;15.30;13.83;;;;;;;4.80;64.81;95628.44;8306638;28;20201;-77
2021/01/24 00:31:26;;;;;;;15.63;14.13;;;;;;;4.54;65.42;95635.06;8306485;28;20197;-77
2021/01/24 00:35:28;;;;;;;16.43;14.83;;;;;;;4.42;65.94;95637.41;8306197;28;20209;-77
2021/01/24 00:39:31;;;;;;;15.67;14.17;;;;;;;4.54;65.95;95635.88;8306363;28;20201;-77
2021/01/24 00:43:33;;;;;;;15.70;14.20;;;;;;;4.28;66.89;95632.22;8305956;28;20238;-78
2021/01/24 00:47:35;;;;;;;15.80;14.40;;;;;;;4.48;65.54;95623.41;8306192;28;20208;-77
2021/01/24 00:51:37;;;;;;;16.37;14.77;;;;;;;4.14;67.33;95625.31;8306789;28;20201;-77
2021/01/24 00:55:39;;;;;;;16.27;14.73;;;;;;;4.06;67.50;95625.75;8305274;28;20201;-77
2021/01/24 00:59:41;;;;;;;16.70;14.97;;;;;;;4.16;66.49;95617.56;8277803;28;20225;-77
2021/01/24 01:03:43;;;;;;;17.30;15.60;;;;;;;4.09;67.17;95624.75;8273763;28;20237;-78
2021/01/24 01:07:45;;;;;;;16.93;15.23;;;;;;;4.13;67.45;95621.09;8294971;28;20746;-77
2021/01/24 01:11:47;;;;;;;16.70;15.00;;;;;;;4.48;66.12;95616.56;8305420;28;20220;-77
2021/01/24 01:15:49;;;;;;;17.87;16.00;;;;;;;4.24;66.63;95613.63;8304703;28;20220;-77
2021/01/24 01:19:51;;;;;;;17.03;15.40;;;;;;;4.26;67.19;95613.56;8304714;28;20201;-77
2021/01/24 01:23:52;;;;;;;17.20;15.43;;;;;;;4.05;67.52;95616.41;8305063;28;20235;-77
2021/01/24 01:27:55;;;;;;;17.37;15.67;;;;;;;4.17;66.54;95617.47;8303755;28;20198;-77
2021/01/24 01:31:57;;;;;;;15.73;14.33;;;;;;;4.18;66.93;95610.63;8304532;28;20563;-77
2021/01/24 01:35:58;;;;;;;14.83;13.43;;;;;;;4.13;67.50;95612.59;8303975;28;20216;-77
2021/01/24 01:40:00;;;;;;;16.20;14.63;;;;;;;4.41;66.05;95610.13;8304339;28;20201;-77
2021/01/24 01:44:04;;;;;;;14.60;13.27;;;;;;;4.35;66.58;95599.41;8304499;28;20229;-77
2021/01/24 01:48:06;;;;;;;16.90;15.13;;;;;;;4.27;66.90;95610.91;8304021;28;20209;-77
2021/01/24 01:52:08;;;;;;;15.53;13.93;;;;;;;4.61;65.87;95605.59;8303403;28;20201;-77
2021/01/24 01:56:10;;;;;;;14.83;13.33;;;;;;;4.68;65.67;95612.84;8304087;28;20231;-77
2021/01/24 02:00:13;;;;;;;14.30;12.97;;;;;;;4.57;64.92;95604.09;8298778;28;20229;-77
2021/01/24 02:04:18;;;;;;;14.90;13.50;;;;;;;4.58;65.50;95598.91;8302339;28;20225;-77
2021/01/24 02:08:23;;;;;;;15.57;14.07;;;;;;;4.65;65.19;95601.94;8302778;28;20244;-77
2021/01/24 02:12:33;;;;;;;17.30;15.53;;;;;;;4.60;65.18;95594.50;8304315;28;20547;-77
2021/01/24 02:16:37;;;;;;;16.33;14.90;;;;;;;4.66;65.06;95601.00;8302511;28;20198;-77
2021/01/24 02:20:44;;;;;;;15.87;14.47;;;;;;;4.57;65.84;95601.53;8302467;28;20300;-77
2021/01/24 02:24:55;;;;;;;17.03;15.40;;;;;;;4.61;65.98;95608.16;8303158;28;20271;-77
2021/01/24 02:29:06;;;;;;;16.60;15.20;;;;;;;4.43;66.30;95600.59;8302358;28;20217;-77
2021/01/24 02:33:12;;;;;;;16.97;15.37;;;;;;;4.32;66.66;95600.41;8300396;28;20206;-77
2021/01/24 02:37:14;;;;;;;16.37;14.87;;;;;;;4.61;65.71;95597.91;8301368;28;20208;-77
2021/01/24 02:41:16;;;;;;;17.57;15.97;;;;;;;4.30;66.75;95600.50;8302634;28;20668;-77
2021/01/24 02:45:19;;;;;;;15.83;14.53;;;;;;;4.48;66.37;95598.59;8302416;28;20247;-76
2021/01/24 02:49:23;;;;;;;16.40;15.00;;;;;;;4.63;65.93;95602.03;8302113;28;20205;-76
2021/01/24 02:53:24;;;;;;;15.87;14.47;;;;;;;4.82;65.26;95603.53;8302313;28;20201;-76
2021/01/24 02:57:26;;;;;;;16.83;15.23;;;;;;;4.79;65.46;95598.56;8301391;28;20573;-77
2021/01/24 03:01:28;;;;;;;16.10;14.73;;;;;;;4.67;65.90;95605.25;8301086;28;20212;-77
2021/01/24 03:05:30;;;;;;;17.57;16.07;;;;;;;5.00;65.78;95597.28;8300709;28;20466;-77
2021/01/24 03:09:33;;;;;;;17.63;16.03;;;;;;;4.82;65.09;95608.66;8298504;28;20653;-77
2021/01/24 03:13:39;;;;;;;16.87;15.37;;;;;;;5.01;64.54;95605.81;8300960;28;20221;-77
2021/01/24 03:17:41;;;;;;;17.53;15.93;;;;;;;4.60;66.12;95606.50;8300003;28;20185;-77
2021/01/24 03:21:45;;;;;;;17.33;15.83;;;;;;;4.78;65.32;95599.47;8300351;28;20205;-77
2021/01/24 03:25:47;;;;;;;18.73;17.03;;;;;;;4.65;65.91;95604.50;8300123;28;20241;-77
2021/01/24 03:29:48;;;;;;;18.80;17.10;;;;;;;4.55;66.23;95596.53;8299830;28;20289;-77
2021/01/24 03:33:52;;;;;;;17.30;15.80;;;;;;;4.65;66.22;95599.38;8300116;28;20205;-77
2021/01/24 03:37:54;;;;;;;17.07;15.47;;;;;;;4.75;65.51;95602.22;8300351;28;20212;-78
2021/01/24 03:41:56;;;;;;;17.93;16.33;;;;;;;4.79;65.90;95598.56;8300585;28;20561;-78
2021/01/24 03:45:58;;;;;;;18.00;16.43;;;;;;;4.72;66.21;95599.81;8300849;28;20224;-77
2021/01/24 03:49:59;;;;;;;18.00;16.50;;;;;;;4.57;65.96;95593.84;8300082;28;20209;-77
2021/01/24 03:54:02;;;;;;;16.80;15.20;;;;;;;4.72;66.06;95592.13;8299799;28;20610;-78
2021/01/24 03:58:04;;;;;;;16.70;15.20;;;;;;;4.86;65.64;95592.16;8300288;28;20209;-77
2021/01/24 04:02:05;;;;;;;16.93;15.33;;;;;;;4.97;65.27;95587.22;8277904;28;20202;-78
2021/01/24 04:06:08;;;;;;;16.40;15.00;;;;;;;5.03;65.02;95586.03;8274704;28;20249;-78
2021/01/24 04:10:12;;;;;;;16.37;14.87;;;;;;;4.83;65.15;95590.59;8301649;28;20201;-78
2021/01/24 04:14:14;;;;;;;16.13;14.73;;;;;;;4.86;65.34;95587.84;8301572;28;20220;-78
2021/01/24 04:18:16;;;;;;;15.43;14.03;;;;;;;4.90;65.26;95593.63;8301387;28;20272;-78
2021/01/24 04:22:18;;;;;;;15.63;14.23;;;;;;;4.81;65.49;95597.53;8301400;28;20201;-78
2021/01/24 04:26:21;;;;;;;14.03;12.63;;;;;;;5.00;64.84;95594.72;8300093;28;20647;-78
2021/01/24 04:30:24;;;;;;;12.73;11.63;;;;;;;5.16;64.43;95599.75;8299988;28;20201;-78
2021/01/24 04:34:25;;;;;;;12.53;11.43;;;;;;;5.09;64.82;95599.28;8299553;28;20205;-78
2021/01/24 04:38:27;;;;;;;12.57;11.47;;;;;;;5.21;64.77;95602.84;8300663;28;20205;-78
2021/01/24 04:42:30;;;;;;;12.10;11.00;;;;;;;5.32;64.28;95603.97;8298571;28;20201;-78
2021/01/24 04:46:35;;;;;;;11.70;10.60;;;;;;;5.29;63.98;95602.38;8299424;28;20602;-78
2021/01/24 04:50:38;;;;;;;11.57;10.57;;;;;;;5.29;64.10;95617.78;8299013;28;20205;-77
2021/01/24 04:54:40;;;;;;;11.30;10.30;;;;;;;4.83;65.21;95617.97;8298811;28;20667;-77
2021/01/24 04:58:43;;;;;;;9.67;8.87;;;;;;;4.93;64.79;95616.53;8298919;28;20657;-78
2021/01/24 05:02:45;;;;;;;9.20;8.40;;;;;;;5.00;64.79;95627.25;8303527;28;20205;-77
2021/01/24 05:06:47;;;;;;;9.20;8.40;;;;;;;5.07;64.78;95629.34;8304227;28;20245;-78
2021/01/24 05:10:54;;;;;;;5.17;4.47;;;;;;;4.70;64.60;95625.56;8304630;28;20207;-78
2021/01/24 05:14:58;;;;;;;3.80;3.50;;;;;;;4.94;63.91;95632.75;8304260;28;20205;-78
2021/01/24 05:19:00;;;;;;;2.60;2.40;;;;;;;4.87;64.17;95637.41;8308720;28;20255;-78
2021/01/24 05:23:04;;;;;;;2.00;1.90;;;;;;;4.90;63.82;95632.91;8309638;28;20197;-79
2021/01/24 05:27:10;;;;;;;1.60;1.50;;;;;;;4.97;63.89;95647.94;8311996;28;20628;-78
2021/01/24 05:31:12;;;;;;;0.80;0.80;;;;;;;4.73;64.30;95645.09;8305231;28;20234;-78
2021/01/24 05:35:15;;;;;;;0.90;0.90;;;;;;;4.68;64.28;95655.59;8304652;28;20239;-78
2021/01/24 05:39:17;;;;;;;1.50;1.40;;;;;;;4.65;64.27;95648.91;8304546;28;20201;-78
2021/01/24 05:43:18;;;;;;;0.80;0.80;;;;;;;4.48;64.22;95659.31;8303733;28;20556;-78
2021/01/24 05:47:21;;;;;;;1.43;1.20;;;;;;;4.30;64.70;95666.28;8304418;28;20236;-78
2021/01/24 05:51:23;;;;;;;1.90;1.70;;;;;;;4.38;64.98;95676.09;8303295;28;20288;-78
2021/01/24 05:55:32;;;;;;;5.03;3.57;;;;;;;4.54;64.06;95684.59;8304197;28;20224;-78
2021/01/24 05:59:49;;;;;;;3.70;2.70;;;;;;;4.38;64.33;95684.63;8309506;28;20218;-79
2021/01/24 06:03:53;;;;;;;2.37;2.17;;;;;;;4.50;64.26;95689.06;8305860;28;20248;-79
2021/01/24 06:07:55;;;;;;;3.20;2.40;;;;;;;4.41;64.65;95691.31;8306123;28;20244;-79
2021/01/24 06:11:57;;;;;;;2.30;2.10;;;;;;;4.50;64.39;95691.63;8306146;28;20670;-79
2021/01/24 06:16:04;;;;;;;2.60;2.40;;;;;;;4.43;64.35;95698.00;8307234;28;20276;-78
2021/01/24 06:20:09;;;;;;;2.80;2.60;;;;;;;4.39;64.62;95705.94;8306540;28;20201;-78
2021/01/24 06:24:13;;;;;;;3.27;2.87;;;;;;;4.26;64.76;95701.50;8308099;28;20228;-79
2021/01/24 06:28:19;;;;;;;3.60;3.23;;;;;;;4.47;64.05;95724.28;8308176;28;20205;-78
2021/01/24 06:32:24;;;;;;;11.03;9.23;;;;;;;4.18;64.15;95733.59;8307740;28;20617;-78
2021/01/24 06:36:27;;;;;;;19.60;15.03;;;;;;;4.30;64.01;95738.88;8302461;28;20205;-78
2021/01/24 06:40:30;;;;;;;7.53;6.40;;;;;;;4.27;63.43;95743.34;8302405;28;20205;-78
2021/01/24 06:44:38;;;;;;;4.73;3.60;;;;;;;4.15;63.03;95744.84;8304581;28;20228;-78
2021/01/24 06:48:43;;;;;;;4.10;3.53;;;;;;;3.94;63.88;95751.94;8307622;28;20193;-79
2021/01/24 06:53:02;;;;;;;3.77;3.43;;;;;;;4.11;62.78;95762.09;8309577;28;20243;-77
2021/01/24 06:57:08;;;;;;;3.50;3.20;;;;;;;3.83;62.73;95759.34;8301643;28;20201;-78
2021/01/24 07:01:23;;;;;;;4.97;4.00;;;;;;;3.90;62.62;95788.84;8286166;28;20217;-78
2021/01/24 07:05:26;;;;;;;3.90;3.40;;;;;;;3.88;62.48;95788.94;8267845;28;20237;-77
2021/01/24 07:09:42;;;;;;;6.73;5.30;;;;;;;4.01;62.33;95788.28;8268406;28;20225;-76
2021/01/24 07:13:44;;;;;;;4.83;3.70;;;;;;;3.92;61.64;95804.94;8269128;28;20202;-77
2021/01/24 07:17:57;;;;;;;4.53;3.63;;;;;;;3.85;61.40;95804.44;8268311;28;20650;-77
2021/01/24 07:21:59;;;;;;;5.13;3.90;;;;;;;4.02;62.11;95813.81;8267608;28;20194;-77
2021/01/24 07:26:03;;;;;;;3.50;3.20;;;;;;;3.98;61.53;95808.91;8267686;28;20565;-78
2021/01/24 07:30:06;;;;;;;4.87;3.27;;;;;;;3.97;60.79;95817.53;8268467;28;20654;-78
2021/01/24 07:34:08;;;;;;;4.33;3.13;;;;;;;3.69;61.41;95817.22;8268269;28;20206;-78
2021/01/24 07:38:09;;;;;;;4.63;3.60;;;;;;;3.96;60.57;95816.72;8271715;28;20198;-78
2021/01/24 07:42:13;;;;;;;4.00;3.40;;;;;;;4.00;60.47;95820.75;8268557;28;20669;-78
2021/01/24 07:46:14;;;;;;;5.83;3.00;;;;;;;3.69;60.95;95832.59;8268758;28;20232;-78
2021/01/24 07:50:16;;;;;;;5.17;4.00;;;;;;;3.89;59.77;95825.59;8269150;28;20202;-78
2021/01/24 07:54:18;;;;;;;5.07;3.40;;;;;;;3.81;59.87;95840.50;8268610;28;20229;-78
2021/01/24 07:58:22;;;;;;;5.40;4.27;;;;;;;4.16;59.48;95850.69;8267570;28;20209;-78
2021/01/24 08:02:26;;;;;;;6.60;4.23;;;;;;;3.67;59.84;95851.47;8271019;28;20206;-78
2021/01/24 08:06:28;;;;;;;6.53;4.17;;;;;;;3.85;59.54;95860.78;8266241;28;20248;-78
2021/01/24 08:10:31;;;;;;;4.07;3.40;;;;;;;4.03;58.59;95864.13;8266778;28;20201;-77
2021/01/24 08:14:33;;;;;;;5.73;3.83;;;;;;;3.94;58.32;95869.75;8266589;28;20248;-77
2021/01/24 08:18:35;;;;;;;4.00;3.53;;;;;;;3.77;57.55;95880.84;8266969;28;20220;-77
2021/01/24 08:22:37;;;;;;;4.30;3.30;;;;;;;3.88;58.24;95872.59;8266858;28;20292;-77
2021/01/24 08:26:39;;;;;;;4.93;3.33;;;;;;;3.85;57.83;95883.00;8267683;28;20249;-77
2021/01/24 08:30:44;;;;;;;5.87;3.43;;;;;;;3.88;58.24;95876.00;8267281;28;20217;-77
2021/01/24 08:34:46;;;;;;;6.53;3.53;;;;;;;3.94;58.20;95881.69;8267552;28;20206;-77
2021/01/24 08:38:49;;;;;;;3.33;3.00;;;;;;;3.67;58.66;95877.06;8273630;28;20202;-77
2021/01/24 08:42:51;;;;;;;6.43;3.50;;;;;;;3.70;58.62;95885.44;8273725;28;20559;-77
2021/01/24 08:46:54;;;;;;;4.13;3.40;;;;;;;3.50;58.99;95883.03;8272515;28;20230;-76
2021/01/24 08:50:58;;;;;;;5.53;3.33;;;;;;;3.70;59.28;95895.66;8271993;28;20244;-76
2021/01/24 08:55:01;;;;;;;4.00;3.07;;;;;;;3.84;58.96;95894.16;8272884;28;20206;-77
2021/01/24 08:59:16;;;;;;;5.30;3.53;;;;;;;4.01;58.78;95899.22;8272508;28;20576;-76
2021/01/24 09:03:23;;;;;;;5.10;4.60;;;;;;;3.88;58.70;95891.38;8272921;28;20190;-77
2021/01/24 09:07:35;;;;;;;5.50;3.63;;;;;;;3.82;58.32;95896.78;8272390;28;20584;-77
2021/01/24 09:11:42;;;;;;;6.13;4.87;;;;;;;3.82;59.40;95894.22;8272452;28;20200;-77
2021/01/24 09:15:43;;;;;;;6.77;4.20;;;;;;;3.86;58.82;95911.06;8271813;28;20206;-77
2021/01/24 09:19:47;;;;;;;4.67;3.10;;;;;;;3.77;58.62;95900.47;8274901;28;20227;-77
2021/01/24 09:23:53;;;;;;;3.53;3.20;;;;;;;3.79;58.77;95916.59;8271388;28;20205;-77
2021/01/24 09:27:54;;;;;;;4.40;3.33;;;;;;;3.69;58.26;95905.97;8272352;28;20257;-77
2021/01/24 09:31:56;;;;;;;6.17;3.83;;;;;;;3.83;58.00;95903.56;8271871;28;20527;-77
2021/01/24 09:35:59;;;;;;;4.60;3.77;;;;;;;4.01;58.01;95929.16;8271221;28;20228;-77
2021/01/24 09:40:01;;;;;;;6.33;3.90;;;;;;;3.91;58.56;95914.25;8272382;28;20198;-77
2021/01/24 09:44:04;;;;;;;4.40;3.40;;;;;;;3.90;58.18;95916.88;8295795;28;20197;-77
2021/01/24 09:48:07;;;;;;;3.97;3.47;;;;;;;3.83;58.72;95913.00;8303967;28;20205;-77
2021/01/24 09:52:09;;;;;;;3.70;3.00;;;;;;;4.06;58.57;95928.00;8303336;28;20197;-77
2021/01/24 09:56:12;;;;;;;7.33;3.63;;;;;;;3.79;57.77;95911.47;8303258;28;20205;-77
2021/01/24 10:00:15;;;;;;;5.93;3.43;;;;;;;3.92;58.17;95927.88;8302722;28;20193;-76
2021/01/24 10:04:17;;;;;;;3.07;2.83;;;;;;;3.80;57.99;95923.38;8302707;28;20223;-76
2021/01/24 10:08:19;;;;;;;4.60;3.70;;;;;;;3.97;58.66;95933.59;8302245;28;20224;-76
2021/01/24 10:12:21;;;;;;;4.97;3.77;;;;;;;4.05;58.32;95935.75;8301648;28;20228;-77
2021/01/24 10:16:23;;;;;;;4.87;3.07;;;;;;;4.03;57.58;95945.25;8302508;28;20260;-77
2021/01/24 10:20:25;;;;;;;3.07;2.77;;;;;;;4.25;57.57;95940.72;8301916;28;20213;-77
2021/01/24 10:24:28;;;;;;;4.10;3.23;;;;;;;4.25;56.98;95942.44;8301936;28;20221;-77
2021/01/24 10:28:30;;;;;;;3.63;2.83;;;;;;;4.04;58.64;95944.38;8301883;28;20304;-77
2021/01/24 10:32:31;;;;;;;5.23;3.50;;;;;;;4.53;57.24;95941.81;8301655;28;20201;-76
2021/01/24 10:36:35;;;;;;;4.97;3.60;;;;;;;4.38;57.62;95934.94;8301964;28;20248;-76
2021/01/24 10:40:38;;;;;;;4.73;4.20;;;;;;;4.32;57.14;95946.31;8301518;28;20205;-77
2021/01/24 10:44:39;;;;;;;6.77;5.47;;;;;;;4.43;57.59;95940.66;8301201;28;20260;-77
2021/01/24 10:48:42;;;;;;;4.67;4.07;;;;;;;4.35;57.60;95940.25;8302917;28;20664;-77
2021/01/24 10:52:45;;;;;;;4.73;3.70;;;;;;;4.22;58.73;95940.03;8301252;28;20644;-77
2021/01/24 10:56:47;;;;;;;4.57;3.57;;;;;;;4.11;58.91;95951.66;8300989;28;20220;-77
2021/01/24 11:00:49;;;;;;;6.07;3.33;;;;;;;5.65;70.58;95963.13;8310826;28;20240;-80
2021/01/24 11:04:51;;;;;;;5.97;3.00;;;;;;;5.41;57.66;95944.81;8308836;28;20220;-79
2021/01/24 11:08:53;;;;;;;3.67;2.70;;;;;;;4.81;58.84;95945.50;8300478;28;20240;-78
2021/01/24 11:12:55;;;;;;;3.33;3.03;;;;;;;4.63;59.14;95942.19;8301333;28;20201;-77
2021/01/24 11:16:57;;;;;;;2.33;2.13;;;;;;;4.63;59.14;95942.19;8303001;28;20201;-78
2021/01/24 11:20:59;;;;;;;2.90;2.47;;;;;;;4.53;59.44;95949.50;8311474;28;20615;-79
2021/01/24 11:25:00;;;;;;;4.20;2.90;;;;;;;4.10;60.17;95950.00;8323679;28;20223;-79
2021/01/24 11:29:04;;;;;;;4.63;4.10;;;;;;;4.31;61.29;95960.06;8321948;28;20568;-79
2021/01/24 11:33:06;;;;;;;3.40;2.90;;;;;;;4.27;60.59;95956.81;8306507;28;20202;-79
2021/01/24 11:37:08;;;;;;;3.50;2.60;;;;;;;4.17;61.00;95965.91;8312182;28;20208;-78
2021/01/24 11:41:10;;;;;;;4.67;3.67;;;;;;;4.38;61.21;95968.25;8317694;28;20201;-78
2021/01/24 11:45:14;;;;;;;2.63;2.43;;;;;;;4.22;61.14;95961.34;8293556;28;20680;-78
2021/01/24 11:49:17;;;;;;;3.10;2.70;;;;;;;4.32;61.44;95966.81;8301070;28;20224;-78
2021/01/24 11:53:18;;;;;;;3.00;2.70;;;;;;;3.88;62.43;95962.22;8301018;28;20205;-78
2021/01/24 11:57:20;;;;;;;2.73;2.43;;;;;;;4.19;61.78;95969.22;8300640;28;20228;-78
2021/01/24 12:01:23;;;;;;;3.43;2.90;;;;;;;4.00;61.79;95961.63;8300822;28;20224;-77
2021/01/24 12:05:25;;;;;;;3.30;2.73;;;;;;;3.71;63.88;95969.03;8301111;28;20325;-77
2021/01/24 12:09:27;;;;;;;3.93;2.53;;;;;;;3.78;63.67;95966.97;8302712;28;20201;-77
2021/01/24 12:13:28;;;;;;;2.83;2.63;;;;;;;3.91;63.07;95955.22;8297586;28;20204;-78
2021/01/24 12:17:31;;;;;;;3.17;2.60;;;;;;;3.99;63.16;95966.81;8306529;28;20201;-78
2021/01/24 12:21:33;;;;;;;2.60;2.40;;;;;;;4.04;63.77;95965.69;8306129;28;20649;-77
2021/01/24 12:25:34;;;;;;;4.10;3.70;;;;;;;4.28;64.22;95970.47;8306454;28;20587;-78
2021/01/24 12:29:36;;;;;;;2.70;2.50;;;;;;;4.05;63.44;95974.19;8307113;28;20197;-78
2021/01/24 12:33:39;;;;;;;3.37;2.90;;;;;;;3.86;63.76;95966.59;8307103;28;20193;-78
2021/01/24 12:37:40;;;;;;;4.43;3.73;;;;;;;3.84;64.12;95971.78;8305709;28;20223;-78
2021/01/24 12:41:43;;;;;;;3.73;3.03;;;;;;;3.98;64.08;95975.41;8305911;28;20251;-78
2021/01/24 12:45:45;;;;;;;11.43;7.33;;;;;;;3.94;64.38;95979.00;8305794;28;20220;-77
2021/01/24 12:49:47;;;;;;;5.37;4.17;;;;;;;3.91;64.63;95978.25;8305499;28;20220;-78
2021/01/24 12:53:49;;;;;;;2.70;2.50;;;;;;;3.95;64.21;95983.25;8305540;28;20202;-77
2021/01/24 12:57:51;;;;;;;2.80;2.30;;;;;;;3.65;64.87;95987.22;8304378;28;20673;-78
2021/01/24 13:01:54;;;;;;;3.10;2.80;;;;;;;3.72;64.99;95988.59;8304911;28;20201;-78
2021/01/24 13:05:56;;;;;;;3.13;2.63;;;;;;;3.68;64.85;95986.25;8272689;28;20336;-77
2021/01/24 13:09:58;;;;;;;3.93;3.30;;;;;;;3.68;65.68;96002.44;8272844;28;20653;-78
2021/01/24 13:14:00;;;;;;;3.20;2.60;;;;;;;3.79;64.95;96001.06;8282110;28;20204;-79
2021/01/24 13:18:02;;;;;;;2.70;2.50;;;;;;;3.84;64.68;96002.50;8304238;28;20209;-78
2021/01/24 13:22:05;;;;;;;2.90;2.70;;;;;;;3.95;64.61;96007.13;8303841;28;20198;-77
2021/01/24 13:26:06;;;;;;;3.67;3.00;;;;;;;3.79;64.99;96016.44;8304093;28;20646;-78
2021/01/24 13:30:09;;;;;;;5.53;3.17;;;;;;;4.43;70.08;96026.06;8305600;28;20197;-77
2021/01/24 13:34:10;;;;;;;5.70;2.70;;;;;;;3.87;65.36;96024.59;8304045;28;20208;-77
2021/01/24 13:38:13;;;;;;;3.40;2.60;;;;;;;3.87;65.37;96034.84;8304396;28;20295;-78
2021/01/24 13:42:15;;;;;;;2.70;2.50;;;;;;;3.80;65.84;96041.97;8303867;28;20217;-77
2021/01/24 13:46:17;;;;;;;2.83;2.60;;;;;;;3.41;66.34;96050.66;8303503;28;20287;-78
2021/01/24 13:50:19;;;;;;;3.50;2.70;;;;;;;3.38;66.17;96061.00;8304053;28;20205;-78
2021/01/24 13:54:21;;;;;;;2.83;2.30;;;;;;;3.41;67.14;96065.16;8303739;28;20633;-77
2021/01/24 13:58:24;;;;;;;2.60;2.40;;;;;;;3.62;66.50;96068.47;8303342;28;20209;-77
2021/01/24 14:02:25;;;;;;;3.10;2.80;;;;;;;3.50;66.66;96082.66;8303059;28;20205;-77
2021/01/24 14:06:27;;;;;;;2.70;2.33;;;;;;;3.51;66.67;96086.88;8302179;28;20233;-78
2021/01/24 14:10:30;;;;;;;5.70;5.20;;;;;;;3.63;66.39;96088.84;8300810;28;20206;-77
2021/01/24 14:14:31;;;;;;;5.70;4.67;;;;;;;3.68;66.34;96098.91;8302466;28;20201;-77
2021/01/24 14:18:33;;;;;;;3.20;2.90;;;;;;;3.68;66.55;96098.91;8302674;28;20231;-78
2021/01/24 14:22:35;;;;;;;2.97;2.70;;;;;;;3.87;65.68;96101.41;8302762;28;20585;-77
2021/01/24 14:26:38;;;;;;;2.70;2.50;;;;;;;3.94;65.94;96119.88;8301619;28;20232;-78
2021/01/24 14:30:39;;;;;;;3.07;2.30;;;;;;;3.57;66.35;96109.63;8302255;28;20198;-78
2021/01/24 14:34:41;;;;;;;3.03;2.60;;;;;;;3.88;65.65;96105.63;8300885;28;20201;-77
2021/01/24 14:38:43;;;;;;;3.00;2.53;;;;;;;3.66;65.81;96121.19;8301803;28;20598;-78
2021/01/24 14:42:54;;;;;;;4.00;2.63;;;;;;;3.67;66.35;96126.22;8302306;28;20189;-78
2021/01/24 14:47:06;;;;;;;3.27;2.97;;;;;;;3.83;66.16;96131.47;8301402;28;20216;-77
2021/01/24 14:51:08;;;;;;;4.23;2.73;;;;;;;4.04;65.56;96142.44;8301056;28;20198;-77
2021/01/24 14:55:10;;;;;;;2.77;2.57;;;;;;;3.65;66.39;96145.09;8301643;28;20209;-77
2021/01/24 14:59:13;;;;;;;3.73;3.40;;;;;;;3.70;66.50;96146.56;8301448;28;20209;-77
2021/01/24 15:03:14;;;;;;;3.77;3.40;;;;;;;3.72;66.31;96151.63;8300937;28;20653;-77
2021/01/24 15:07:16;;;;;;;4.20;3.53;;;;;;;3.72;66.39;96160.13;8300564;28;20243;-77
2021/01/24 15:11:18;;;;;;;3.60;3.30;;;;;;;3.67;66.30;96154.38;8301370;28;20201;-77
2021/01/24 15:15:21;;;;;;;5.67;4.97;;;;;;;4.02;65.58;96171.59;8301671;28;20278;-77
2021/01/24 15:19:23;;;;;;;5.93;4.47;;;;;;;3.96;65.36;96174.41;8303185;28;20213;-77
2021/01/24 15:23:24;;;;;;;5.13;3.93;;;;;;;3.87;65.37;96179.06;8300888;28;20566;-78
2021/01/24 15:27:27;;;;;;;4.20;3.70;;;;;;;3.99;65.17;96190.47;8289959;28;20320;-77
2021/01/24 15:31:46;;;;;;;5.13;3.90;;;;;;;4.42;74.17;96201.28;8300376;28;20208;-77
2021/01/24 15:35:48;;;;;;;12.07;3.77;;;;;;;7.82;78.84;96200.78;8300311;28;20660;-78
2021/01/24 15:39:50;;;;;;;5.53;4.93;;;;;;;7.49;60.94;96197.69;8300293;28;20645;-78
2021/01/24 15:43:52;;;;;;;7.23;5.63;;;;;;;5.80;60.96;96213.97;8299367;28;20204;-78
2021/01/24 15:47:56;;;;;;;4.67;3.70;;;;;;;5.48;61.28;96219.09;8300084;28;20232;-78
2021/01/24 15:51:58;;;;;;;4.13;3.73;;;;;;;4.98;62.47;96226.78;8300032;28;20193;-78
2021/01/24 15:56:00;;;;;;;4.60;3.67;;;;;;;4.73;63.04;96240.81;8300047;28;20652;-78
2021/01/24 16:00:02;;;;;;;4.73;4.33;;;;;;;4.57;63.35;96250.13;8300640;28;20212;-78
2021/01/24 16:04:06;;;;;;;5.70;5.10;;;;;;;4.48;63.68;96243.72;8300072;28;20247;-78
2021/01/24 16:08:08;;;;;;;4.80;4.40;;;;;;;4.56;63.45;96248.50;8299369;28;20587;-78
2021/01/24 16:12:10;;;;;;;5.00;4.50;;;;;;;4.41;63.12;96261.13;8298893;28;20201;-78
2021/01/24 16:16:11;;;;;;;8.27;5.60;;;;;;;4.38;63.50;96262.97;8298909;28;20564;-78
2021/01/24 16:20:15;;;;;;;7.27;5.40;;;;;;;4.21;63.90;96264.63;8299345;28;20272;-79
2021/01/24 16:24:17;;;;;;;5.30;4.77;;;;;;;4.15;64.11;96271.75;8300029;28;20205;-78
2021/01/24 16:28:19;;;;;;;5.13;4.43;;;;;;;3.99;64.16;96279.31;8300729;28;20673;-78
2021/01/24 16:32:20;;;;;;;7.63;4.77;;;;;;;4.08;64.18;96282.28;8299682;28;20216;-78
2021/01/24 16:36:23;;;;;;;5.80;4.73;;;;;;;4.11;64.11;96282.16;8300123;28;20288;-79
2021/01/24 16:40:25;;;;;;;6.07;5.03;;;;;;;4.15;63.50;96285.41;8300398;28;20200;-79
2021/01/24 16:44:27;;;;;;;6.60;4.50;;;;;;;4.31;63.44;96288.09;8304737;28;20209;-79
2021/01/24 16:48:29;;;;;;;5.90;5.30;;;;;;;4.17;64.05;96287.88;8303109;28;20217;-79
2021/01/24 16:52:33;;;;;;;9.40;6.50;;;;;;;4.10;64.39;96292.47;8295713;28;20281;-79
2021/01/24 16:56:34;;;;;;;7.63;6.07;;;;;;;4.09;64.17;96294.19;8307133;28;20536;-78
2021/01/24 17:00:37;;;;;;;8.43;6.60;;;;;;;4.18;63.31;96298.06;8305461;28;20657;-78
2021/01/24 17:04:38;;;;;;;10.20;6.23;;;;;;;4.03;64.05;96299.56;8307404;28;20225;-78
2021/01/24 17:08:41;;;;;;;6.17;5.37;;;;;;;4.25;63.22;96307.13;8303385;28;20234;-78
2021/01/24 17:12:43;;;;;;;24.53;13.90;;;;;;;4.31;63.11;96311.97;8304599;28;20197;-78
2021/01/24 17:16:44;;;;;;;6.77;5.70;;;;;;;4.21;63.05;96318.44;8303725;28;20201;-78
2021/01/24 17:20:46;;;;;;;8.67;6.50;;;;;;;4.14;63.10;96317.03;8303350;28;20200;-78
2021/01/24 17:24:49;;;;;;;8.73;6.63;;;;;;;4.30;62.92;96320.56;8302924;28;20197;-78
2021/01/24 17:28:50;;;;;;;10.27;8.07;;;;;;;4.16;62.68;96316.97;8303157;28;20221;-78
2021/01/24 17:32:52;;;;;;;10.93;6.97;;;;;;;4.00;63.54;96317.66;8303975;28;20532;-78
2021/01/24 17:36:54;;;;;;;6.97;5.20;;;;;;;4.04;63.29;96324.31;8303187;28;20259;-78
2021/01/24 17:40:57;;;;;;;8.80;6.90;;;;;;;4.62;61.26;96330.25;8302657;28;20439;-77
2021/01/24 17:44:59;;;;;;;10.83;8.03;;;;;;;4.06;63.13;96332.75;8304178;28;20564;-78
2021/01/24 17:49:00;;;;;;;8.10;5.70;;;;;;;4.04;63.30;96339.69;8303280;28;20212;-77
2021/01/24 17:53:05;;;;;;;8.53;5.17;;;;;;;3.89;63.67;96345.47;8303964;28;20201;-75
2021/01/24 17:57:09;;;;;;;7.03;5.60;;;;;;;3.92;62.98;96341.06;8306210;28;20297;-77
2021/01/24 18:01:11;;;;;;;6.40;4.80;;;;;;;4.02;63.03;96335.53;8303956;28;20288;-76
2021/01/24 18:05:14;;;;;;;6.80;4.63;;;;;;;3.81;63.42;96332.16;8302565;28;20221;-75
2021/01/24 18:09:16;;;;;;;10.87;6.33;;;;;;;3.77;63.31;96328.06;8302280;28;20201;-76
2021/01/24 18:13:19;;;;;;;11.23;6.80;;;;;;;3.77;62.74;96333.19;8301660;28;20196;-76
2021/01/24 18:17:20;;;;;;;7.97;6.57;;;;;;;3.87;62.75;96329.34;8301926;28;20202;-76
2021/01/24 18:21:22;;;;;;;7.13;6.33;;;;;;;3.88;63.12;96339.53;8302362;28;20209;-76
2021/01/24 18:25:24;;;;;;;6.93;5.10;;;;;;;3.78;62.76;96342.53;8302329;28;20225;-76
2021/01/24 18:29:27;;;;;;;8.03;5.20;;;;;;;3.67;63.39;96350.66;8302596;28;20201;-76
2021/01/24 18:33:29;;;;;;;7.60;5.13;;;;;;;3.88;62.63;96349.78;8301689;28;20212;-76
2021/01/24 18:37:30;;;;;;;6.90;5.10;;;;;;;3.95;62.54;96362.31;8301938;28;20228;-76
2021/01/24 18:41:32;;;;;;;8.77;5.47;;;;;;;3.95;62.35;96360.56;8301328;28;20216;-76
2021/01/24 18:45:35;;;;;;;13.13;5.53;;;;;;;6.85;86.36;96360.06;8302433;28;20225;-78
2021/01/24 18:49:38;;;;;;;12.63;3.90;;;;;;;8.41;64.83;96363.09;8314793;28;20270;-79
2021/01/24 18:53:41;;;;;;;5.63;4.43;;;;;;;7.58;53.38;96364.56;8313736;28;20432;-77
2021/01/24 18:57:43;;;;;;;6.93;4.30;;;;;;;6.13;55.67;96357.06;8301536;28;20209;-77
2021/01/24 19:01:45;;;;;;;7.40;5.60;;;;;;;5.56;56.96;96369.34;8301333;28;20193;-77
2021/01/24 19:05:47;;;;;;;9.70;6.50;;;;;;;5.34;57.99;96362.72;8301240;28;20579;-77
2021/01/24 19:09:49;;;;;;;6.57;4.80;;;;;;;5.06;58.22;96369.19;8300961;28;20208;-76